Koslan, Russia
Current Conditions -  °F | °C
As of 1:30 PM on Friday 24 Oct 2014 (Local Time) from UUYY Reporting Station
Overcast Overcast  
Wind Chill: 12°   Ceiling: 2600
Heat Index: 23°   Visibility: 6mi
Dew Point: 12°   Wind: 11mph
Humidity: 63%   Direction: 350°N
Pressure: 30.3"   Gusts: 18mph
Location:  63.45°N, 48.9°E
Report Text: UUYY 241030Z 35005G08MPS 9999 BKN026 OVC066 M05/M11 Q1026 TEMPO1000 SHSN SCT010CB 0182//49 RMK QFE760/1014
Loading
Personal Weather Stations






























Interactive Weather Map
Tropical Storm Tracking
New forecast layout! Learn more

10-Day Weather Forecast

Advertisements
Track Severe Weather on mobile